sensor_id;sensor_type;location;lat;lon;timestamp;temperature;humidity
51837;DHT22;38941;53.254;6.600;2023-06-19T00:00:30;21.90;99.90
51837;DHT22;38941;53.254;6.600;2023-06-19T00:02:31;21.90;99.90
51837;DHT22;38941;53.254;6.600;2023-06-19T00:04:32;21.80;99.90
51837;DHT22;38941;53.254;6.600;2023-06-19T00:06:32;21.80;99.90
51837;DHT22;38941;53.254;6.600;2023-06-19T00:08:33;21.80;99.90
51837;DHT22;38941;53.254;6.600;2023-06-19T00:10:34;21.90;99.90
51837;DHT22;38941;53.254;6.600;2023-06-19T00:12:36;21.80;99.90
51837;DHT22;38941;53.254;6.600;2023-06-19T00:14:37;21.80;99.90
51837;DHT22;38941;53.254;6.600;2023-06-19T00:16:38;21.80;99.90
51837;DHT22;38941;53.254;6.600;2023-06-19T00:18:40;21.70;99.90
51837;DHT22;38941;53.254;6.600;2023-06-19T00:20:42;21.70;99.90
51837;DHT22;38941;53.254;6.600;2023-06-19T00:22:46;21.70;99.90
51837;DHT22;38941;53.254;6.600;2023-06-19T00:24:52;21.70;99.90
51837;DHT22;38941;53.254;6.600;2023-06-19T00:26:52;21.70;99.90
51837;DHT22;38941;53.254;6.600;2023-06-19T00:28:53;21.70;99.90
51837;DHT22;38941;53.254;6.600;2023-06-19T00:30:54;21.70;99.90
51837;DHT22;38941;53.254;6.600;2023-06-19T00:32:54;21.70;99.90
51837;DHT22;38941;53.254;6.600;2023-06-19T00:34:56;21.70;99.90
51837;DHT22;38941;53.254;6.600;2023-06-19T00:36:57;21.70;99.90
51837;DHT22;38941;53.254;6.600;2023-06-19T00:38:58;21.70;99.90
51837;DHT22;38941;53.254;6.600;2023-06-19T00:40:59;21.70;99.90
51837;DHT22;38941;53.254;6.600;2023-06-19T00:43:00;21.70;99.90
51837;DHT22;38941;53.254;6.600;2023-06-19T00:45:01;21.70;99.90
51837;DHT22;38941;53.254;6.600;2023-06-19T00:47:03;21.70;99.90
51837;DHT22;38941;53.254;6.600;2023-06-19T00:49:04;21.70;99.90
51837;DHT22;38941;53.254;6.600;2023-06-19T00:51:05;21.70;99.90
51837;DHT22;38941;53.254;6.600;2023-06-19T00:53:07;21.60;99.90
51837;DHT22;38941;53.254;6.600;2023-06-19T00:55:09;21.60;99.90
51837;DHT22;38941;53.254;6.600;2023-06-19T00:57:10;21.60;99.90
51837;DHT22;38941;53.254;6.600;2023-06-19T00:59:15;21.60;99.90
51837;DHT22;38941;53.254;6.600;2023-06-19T01:01:17;21.60;99.90
51837;DHT22;38941;53.254;6.600;2023-06-19T01:03:18;21.60;99.90
51837;DHT22;38941;53.254;6.600;2023-06-19T01:05:18;21.60;99.90
51837;DHT22;38941;53.254;6.600;2023-06-19T01:09:52;21.60;99.90
51837;DHT22;38941;53.254;6.600;2023-06-19T01:11:57;21.60;99.90
51837;DHT22;38941;53.254;6.600;2023-06-19T01:14:03;21.60;99.90
51837;DHT22;38941;53.254;6.600;2023-06-19T01:16:07;21.50;99.90
51837;DHT22;38941;53.254;6.600;2023-06-19T01:18:08;21.50;99.90
51837;DHT22;38941;53.254;6.600;2023-06-19T01:20:12;21.50;99.90
51837;DHT22;38941;53.254;6.600;2023-06-19T01:22:28;21.50;99.90
51837;DHT22;38941;53.254;6.600;2023-06-19T01:24:29;21.50;99.90
51837;DHT22;38941;53.254;6.600;2023-06-19T01:26:30;21.50;99.90
51837;DHT22;38941;53.254;6.600;2023-06-19T01:28:30;21.50;99.90
51837;DHT22;38941;53.254;6.600;2023-06-19T01:30:33;21.50;99.90
51837;DHT22;38941;53.254;6.600;2023-06-19T01:35:08;21.50;99.90
51837;DHT22;38941;53.254;6.600;2023-06-19T01:37:10;21.50;99.90
51837;DHT22;38941;53.254;6.600;2023-06-19T01:39:12;21.50;99.90
51837;DHT22;38941;53.254;6.600;2023-06-19T01:41:14;21.50;99.90
51837;DHT22;38941;53.254;6.600;2023-06-19T01:43:16;21.50;99.90
51837;DHT22;38941;53.254;6.600;2023-06-19T01:45:17;21.50;99.90
51837;DHT22;38941;53.254;6.600;2023-06-19T01:47:18;21.50;99.90
51837;DHT22;38941;53.254;6.600;2023-06-19T01:49:20;21.50;99.90
51837;DHT22;38941;53.254;6.600;2023-06-19T01:51:21;21.50;99.90
51837;DHT22;38941;53.254;6.600;2023-06-19T01:53:22;21.50;99.90
51837;DHT22;38941;53.254;6.600;2023-06-19T01:55:23;21.50;99.90
51837;DHT22;38941;53.254;6.600;2023-06-19T01:57:23;21.50;99.90
51837;DHT22;38941;53.254;6.600;2023-06-19T01:59:24;21.50;99.90
51837;DHT22;38941;53.254;6.600;2023-06-19T02:01:25;21.50;99.90
51837;DHT22;38941;53.254;6.600;2023-06-19T02:03:26;21.50;99.90
51837;DHT22;38941;53.254;6.600;2023-06-19T02:05:27;21.40;99.90
51837;DHT22;38941;53.254;6.600;2023-06-19T02:07:28;21.40;99.90
51837;DHT22;38941;53.254;6.600;2023-06-19T02:09:29;21.40;99.90
51837;DHT22;38941;53.254;6.600;2023-06-19T02:11:30;21.40;99.90
51837;DHT22;38941;53.254;6.600;2023-06-19T02:13:30;21.40;99.90
51837;DHT22;38941;53.254;6.600;2023-06-19T02:15:31;21.40;99.90
51837;DHT22;38941;53.254;6.600;2023-06-19T02:17:32;21.40;99.90
51837;DHT22;38941;53.254;6.600;2023-06-19T02:19:33;21.40;99.90
51837;DHT22;38941;53.254;6.600;2023-06-19T02:21:34;21.40;99.90
51837;DHT22;38941;53.254;6.600;2023-06-19T02:23:35;21.40;99.90
51837;DHT22;38941;53.254;6.600;2023-06-19T02:25:36;21.30;99.90
51837;DHT22;38941;53.254;6.600;2023-06-19T02:27:37;21.30;99.90
51837;DHT22;38941;53.254;6.600;2023-06-19T02:29:38;21.30;99.90
51837;DHT22;38941;53.254;6.600;2023-06-19T02:31:39;21.40;99.90
51837;DHT22;38941;53.254;6.600;2023-06-19T02:33:40;21.30;99.90
51837;DHT22;38941;53.254;6.600;2023-06-19T02:35:41;21.30;99.90
51837;DHT22;38941;53.254;6.600;2023-06-19T02:37:42;21.30;99.90
51837;DHT22;38941;53.254;6.600;2023-06-19T02:39:43;21.30;99.90
51837;DHT22;38941;53.254;6.600;2023-06-19T02:41:43;21.40;99.90
51837;DHT22;38941;53.254;6.600;2023-06-19T02:43:47;21.30;99.90
51837;DHT22;38941;53.254;6.600;2023-06-19T02:45:47;21.40;99.90
51837;DHT22;38941;53.254;6.600;2023-06-19T02:47:48;21.40;99.90
51837;DHT22;38941;53.254;6.600;2023-06-19T02:49:50;21.30;99.90
51837;DHT22;38941;53.254;6.600;2023-06-19T02:51:51;21.40;99.90
51837;DHT22;38941;53.254;6.600;2023-06-19T02:53:52;21.40;99.90
51837;DHT22;38941;53.254;6.600;2023-06-19T02:55:52;21.40;99.80
51837;DHT22;38941;53.254;6.600;2023-06-19T02:57:53;21.40;99.70
51837;DHT22;38941;53.254;6.600;2023-06-19T02:59:54;21.40;99.50
51837;DHT22;38941;53.254;6.600;2023-06-19T03:01:55;21.40;99.20
51837;DHT22;38941;53.254;6.600;2023-06-19T03:03:55;21.40;99.00
51837;DHT22;38941;53.254;6.600;2023-06-19T03:05:57;21.40;98.70
51837;DHT22;38941;53.254;6.600;2023-06-19T03:08:01;21.40;98.50
51837;DHT22;38941;53.254;6.600;2023-06-19T03:10:03;21.50;98.20
51837;DHT22;38941;53.254;6.600;2023-06-19T03:12:04;21.50;98.00
51837;DHT22;38941;53.254;6.600;2023-06-19T03:14:05;21.60;97.90
51837;DHT22;38941;53.254;6.600;2023-06-19T03:16:07;21.60;97.60
51837;DHT22;38941;53.254;6.600;2023-06-19T03:18:08;21.60;97.50
51837;DHT22;38941;53.254;6.600;2023-06-19T03:20:11;21.60;97.40
51837;DHT22;38941;53.254;6.600;2023-06-19T03:22:12;21.60;97.30
51837;DHT22;38941;53.254;6.600;2023-06-19T03:24:13;21.60;97.20
51837;DHT22;38941;53.254;6.600;2023-06-19T03:26:15;21.60;97.20
51837;DHT22;38941;53.254;6.600;2023-06-19T03:28:15;21.60;97.10
51837;DHT22;38941;53.254;6.600;2023-06-19T03:30:16;21.60;97.00
51837;DHT22;38941;53.254;6.600;2023-06-19T03:32:19;21.60;97.00
51837;DHT22;38941;53.254;6.600;2023-06-19T03:34:22;21.60;97.00
51837;DHT22;38941;53.254;6.600;2023-06-19T03:36:23;21.60;96.90
51837;DHT22;38941;53.254;6.600;2023-06-19T03:38:23;21.60;97.00
51837;DHT22;38941;53.254;6.600;2023-06-19T03:40:24;21.50;97.00
51837;DHT22;38941;53.254;6.600;2023-06-19T03:42:25;21.50;97.10
51837;DHT22;38941;53.254;6.600;2023-06-19T03:44:26;21.50;97.20
51837;DHT22;38941;53.254;6.600;2023-06-19T03:46:26;21.50;97.30
51837;DHT22;38941;53.254;6.600;2023-06-19T03:48:29;21.50;97.40
51837;DHT22;38941;53.254;6.600;2023-06-19T03:50:31;21.50;97.50
51837;DHT22;38941;53.254;6.600;2023-06-19T03:52:31;21.40;97.60
51837;DHT22;38941;53.254;6.600;2023-06-19T03:54:32;21.40;97.60
51837;DHT22;38941;53.254;6.600;2023-06-19T03:56:33;21.40;97.70
51837;DHT22;38941;53.254;6.600;2023-06-19T03:58:34;21.40;97.80
51837;DHT22;38941;53.254;6.600;2023-06-19T04:00:34;21.40;97.90
51837;DHT22;38941;53.254;6.600;2023-06-19T04:02:36;21.40;97.90
51837;DHT22;38941;53.254;6.600;2023-06-19T04:04:37;21.40;97.90
51837;DHT22;38941;53.254;6.600;2023-06-19T04:06:38;21.40;98.00
51837;DHT22;38941;53.254;6.600;2023-06-19T04:08:39;21.40;98.00
51837;DHT22;38941;53.254;6.600;2023-06-19T04:10:39;21.40;98.10
51837;DHT22;38941;53.254;6.600;2023-06-19T04:12:40;21.40;98.10
51837;DHT22;38941;53.254;6.600;2023-06-19T04:14:41;21.40;98.20
51837;DHT22;38941;53.254;6.600;2023-06-19T04:16:42;21.40;98.30
51837;DHT22;38941;53.254;6.600;2023-06-19T04:18:43;21.50;98.40
51837;DHT22;38941;53.254;6.600;2023-06-19T04:20:44;21.50;98.50
51837;DHT22;38941;53.254;6.600;2023-06-19T04:22:45;21.50;98.60
51837;DHT22;38941;53.254;6.600;2023-06-19T04:24:46;21.60;98.70
51837;DHT22;38941;53.254;6.600;2023-06-19T04:26:46;21.60;98.70
51837;DHT22;38941;53.254;6.600;2023-06-19T04:28:48;21.60;98.90
51837;DHT22;38941;53.254;6.600;2023-06-19T04:30:49;21.60;99.00
51837;DHT22;38941;53.254;6.600;2023-06-19T04:32:51;21.60;99.20
51837;DHT22;38941;53.254;6.600;2023-06-19T04:34:53;21.60;99.20
51837;DHT22;38941;53.254;6.600;2023-06-19T04:36:54;21.60;99.50
51837;DHT22;38941;53.254;6.600;2023-06-19T04:38:58;21.60;99.60
51837;DHT22;38941;53.254;6.600;2023-06-19T04:41:01;21.60;99.80
51837;DHT22;38941;53.254;6.600;2023-06-19T04:43:02;21.60;99.80
51837;DHT22;38941;53.254;6.600;2023-06-19T04:45:03;21.60;99.90
51837;DHT22;38941;53.254;6.600;2023-06-19T04:47:05;21.50;99.90
51837;DHT22;38941;53.254;6.600;2023-06-19T04:49:06;21.50;99.90
51837;DHT22;38941;53.254;6.600;2023-06-19T04:51:07;21.60;99.90
51837;DHT22;38941;53.254;6.600;2023-06-19T04:53:08;21.50;99.90
51837;DHT22;38941;53.254;6.600;2023-06-19T04:55:16;21.50;99.90
51837;DHT22;38941;53.254;6.600;2023-06-19T04:57:18;21.50;99.90
51837;DHT22;38941;53.254;6.600;2023-06-19T04:59:19;21.50;99.90
51837;DHT22;38941;53.254;6.600;2023-06-19T05:01:19;21.50;99.90
51837;DHT22;38941;53.254;6.600;2023-06-19T05:03:26;21.50;99.90
51837;DHT22;38941;53.254;6.600;2023-06-19T05:05:28;21.50;99.90
51837;DHT22;38941;53.254;6.600;2023-06-19T05:07:32;21.50;99.90
51837;DHT22;38941;53.254;6.600;2023-06-19T05:09:33;21.60;99.90
51837;DHT22;38941;53.254;6.600;2023-06-19T05:11:35;21.40;99.90
51837;DHT22;38941;53.254;6.600;2023-06-19T05:13:35;21.40;99.90
51837;DHT22;38941;53.254;6.600;2023-06-19T05:15:36;21.40;99.90
51837;DHT22;38941;53.254;6.600;2023-06-19T05:17:44;21.40;99.90
51837;DHT22;38941;53.254;6.600;2023-06-19T05:19:46;21.40;99.90
51837;DHT22;38941;53.254;6.600;2023-06-19T05:21:47;21.40;99.90
51837;DHT22;38941;53.254;6.600;2023-06-19T05:23:48;21.30;99.90
51837;DHT22;38941;53.254;6.600;2023-06-19T05:25:51;21.30;99.90
51837;DHT22;38941;53.254;6.600;2023-06-19T05:27:52;21.30;99.90
51837;DHT22;38941;53.254;6.600;2023-06-19T05:29:52;21.30;99.90
51837;DHT22;38941;53.254;6.600;2023-06-19T05:31:55;21.30;99.90
51837;DHT22;38941;53.254;6.600;2023-06-19T05:33:56;21.30;99.90
51837;DHT22;38941;53.254;6.600;2023-06-19T05:35:57;21.30;99.90
51837;DHT22;38941;53.254;6.600;2023-06-19T05:37:57;21.40;99.90
51837;DHT22;38941;53.254;6.600;2023-06-19T05:39:58;21.40;99.90
51837;DHT22;38941;53.254;6.600;2023-06-19T05:42:00;21.40;99.90
51837;DHT22;38941;53.254;6.600;2023-06-19T05:44:00;21.40;99.90
51837;DHT22;38941;53.254;6.600;2023-06-19T05:46:03;21.40;99.90
51837;DHT22;38941;53.254;6.600;2023-06-19T05:48:05;21.50;99.90
51837;DHT22;38941;53.254;6.600;2023-06-19T05:50:06;21.50;99.90
51837;DHT22;38941;53.254;6.600;2023-06-19T05:52:07;21.60;99.90
51837;DHT22;38941;53.254;6.600;2023-06-19T05:54:08;21.60;99.90
51837;DHT22;38941;53.254;6.600;2023-06-19T05:56:10;21.60;99.90
51837;DHT22;38941;53.254;6.600;2023-06-19T05:58:11;21.60;99.90
51837;DHT22;38941;53.254;6.600;2023-06-19T06:00:12;21.70;99.90
51837;DHT22;38941;53.254;6.600;2023-06-19T06:02:15;21.70;99.90
51837;DHT22;38941;53.254;6.600;2023-06-19T06:04:16;21.70;99.90
51837;DHT22;38941;53.254;6.600;2023-06-19T06:06:16;21.80;99.90
51837;DHT22;38941;53.254;6.600;2023-06-19T06:08:17;21.80;99.90
51837;DHT22;38941;53.254;6.600;2023-06-19T06:10:23;21.80;99.90
51837;DHT22;38941;53.254;6.600;2023-06-19T06:12:23;21.80;99.90
51837;DHT22;38941;53.254;6.600;2023-06-19T06:14:26;21.70;99.90
51837;DHT22;38941;53.254;6.600;2023-06-19T06:16:27;21.70;99.90
51837;DHT22;38941;53.254;6.600;2023-06-19T06:18:27;21.60;99.90
51837;DHT22;38941;53.254;6.600;2023-06-19T06:20:28;21.60;99.90
51837;DHT22;38941;53.254;6.600;2023-06-19T06:22:29;21.60;99.90
51837;DHT22;38941;53.254;6.600;2023-06-19T06:24:29;21.60;99.90
51837;DHT22;38941;53.254;6.600;2023-06-19T06:26:30;21.60;99.90
51837;DHT22;38941;53.254;6.600;2023-06-19T06:28:31;21.60;99.90
51837;DHT22;38941;53.254;6.600;2023-06-19T06:30:32;21.70;99.90
51837;DHT22;38941;53.254;6.600;2023-06-19T06:32:34;21.70;99.90
51837;DHT22;38941;53.254;6.600;2023-06-19T06:34:34;21.70;99.90
51837;DHT22;38941;53.254;6.600;2023-06-19T06:36:35;21.70;99.90
51837;DHT22;38941;53.254;6.600;2023-06-19T06:38:36;21.70;99.90
51837;DHT22;38941;53.254;6.600;2023-06-19T06:40:37;21.90;99.90
51837;DHT22;38941;53.254;6.600;2023-06-19T06:42:38;21.60;99.90
51837;DHT22;38941;53.254;6.600;2023-06-19T06:44:39;21.60;99.90
51837;DHT22;38941;53.254;6.600;2023-06-19T06:46:40;21.60;99.90
51837;DHT22;38941;53.254;6.600;2023-06-19T06:48:41;21.50;99.90
51837;DHT22;38941;53.254;6.600;2023-06-19T06:50:43;21.50;99.90
51837;DHT22;38941;53.254;6.600;2023-06-19T06:52:44;21.60;99.90
51837;DHT22;38941;53.254;6.600;2023-06-19T06:54:45;21.50;99.90
51837;DHT22;38941;53.254;6.600;2023-06-19T06:56:46;21.60;99.90
51837;DHT22;38941;53.254;6.600;2023-06-19T06:58:48;21.50;99.90
51837;DHT22;38941;53.254;6.600;2023-06-19T07:00:49;21.50;99.90
51837;DHT22;38941;53.254;6.600;2023-06-19T07:02:52;21.50;99.90
51837;DHT22;38941;53.254;6.600;2023-06-19T07:04:55;21.50;99.90
51837;DHT22;38941;53.254;6.600;2023-06-19T07:06:56;21.50;99.90
51837;DHT22;38941;53.254;6.600;2023-06-19T07:08:56;21.50;99.90
51837;DHT22;38941;53.254;6.600;2023-06-19T07:10:57;21.40;99.90
51837;DHT22;38941;53.254;6.600;2023-06-19T07:12:59;21.50;99.90
51837;DHT22;38941;53.254;6.600;2023-06-19T07:15:00;21.50;99.90
51837;DHT22;38941;53.254;6.600;2023-06-19T07:17:01;21.50;99.90
51837;DHT22;38941;53.254;6.600;2023-06-19T07:19:02;21.40;99.90
51837;DHT22;38941;53.254;6.600;2023-06-19T07:21:04;21.40;99.90
51837;DHT22;38941;53.254;6.600;2023-06-19T07:23:07;21.30;99.90
51837;DHT22;38941;53.254;6.600;2023-06-19T07:25:10;21.20;99.90
51837;DHT22;38941;53.254;6.600;2023-06-19T07:27:18;21.20;99.90
51837;DHT22;38941;53.254;6.600;2023-06-19T07:29:19;21.10;99.90
51837;DHT22;38941;53.254;6.600;2023-06-19T07:31:24;21.00;99.90
51837;DHT22;38941;53.254;6.600;2023-06-19T07:33:26;20.90;99.90
51837;DHT22;38941;53.254;6.600;2023-06-19T07:35:26;20.90;99.90
51837;DHT22;38941;53.254;6.600;2023-06-19T07:37:27;20.80;99.90
51837;DHT22;38941;53.254;6.600;2023-06-19T07:39:28;20.70;99.90
51837;DHT22;38941;53.254;6.600;2023-06-19T07:41:29;20.60;99.90
51837;DHT22;38941;53.254;6.600;2023-06-19T07:43:36;20.60;99.90
51837;DHT22;38941;53.254;6.600;2023-06-19T07:45:40;20.50;99.90
51837;DHT22;38941;53.254;6.600;2023-06-19T07:47:41;20.40;99.90
51837;DHT22;38941;53.254;6.600;2023-06-19T07:49:42;20.40;99.90
51837;DHT22;38941;53.254;6.600;2023-06-19T07:51:45;20.40;99.90
51837;DHT22;38941;53.254;6.600;2023-06-19T07:53:47;20.40;99.90
51837;DHT22;38941;53.254;6.600;2023-06-19T07:55:49;20.40;99.90
51837;DHT22;38941;53.254;6.600;2023-06-19T07:57:51;20.40;99.90
51837;DHT22;38941;53.254;6.600;2023-06-19T07:59:54;20.40;99.90
51837;DHT22;38941;53.254;6.600;2023-06-19T08:01:55;20.40;99.90
51837;DHT22;38941;53.254;6.600;2023-06-19T08:03:57;20.40;99.90
51837;DHT22;38941;53.254;6.600;2023-06-19T08:05:58;20.40;99.90
51837;DHT22;38941;53.254;6.600;2023-06-19T08:07:59;20.50;99.90
51837;DHT22;38941;53.254;6.600;2023-06-19T08:10:01;20.50;99.90
51837;DHT22;38941;53.254;6.600;2023-06-19T08:12:05;20.50;99.90
51837;DHT22;38941;53.254;6.600;2023-06-19T08:14:08;20.50;99.90
51837;DHT22;38941;53.254;6.600;2023-06-19T08:16:09;20.60;99.90
51837;DHT22;38941;53.254;6.600;2023-06-19T08:18:11;20.70;99.90
51837;DHT22;38941;53.254;6.600;2023-06-19T08:20:12;20.70;99.90
51837;DHT22;38941;53.254;6.600;2023-06-19T08:22:13;20.70;99.90
51837;DHT22;38941;53.254;6.600;2023-06-19T08:24:15;20.70;99.90
51837;DHT22;38941;53.254;6.600;2023-06-19T08:26:16;20.70;99.90
51837;DHT22;38941;53.254;6.600;2023-06-19T08:28:19;20.80;99.90
51837;DHT22;38941;53.254;6.600;2023-06-19T08:30:21;20.70;99.90
51837;DHT22;38941;53.254;6.600;2023-06-19T08:32:24;20.70;99.90
51837;DHT22;38941;53.254;6.600;2023-06-19T08:34:28;20.70;99.90
51837;DHT22;38941;53.254;6.600;2023-06-19T08:36:31;20.70;99.90
51837;DHT22;38941;53.254;6.600;2023-06-19T08:38:32;20.70;99.90
51837;DHT22;38941;53.254;6.600;2023-06-19T08:40:33;20.80;99.90
51837;DHT22;38941;53.254;6.600;2023-06-19T08:42:35;20.90;99.90
51837;DHT22;38941;53.254;6.600;2023-06-19T08:44:36;21.00;99.90
51837;DHT22;38941;53.254;6.600;2023-06-19T08:46:38;21.10;99.90
51837;DHT22;38941;53.254;6.600;2023-06-19T08:48:39;21.40;99.90
51837;DHT22;38941;53.254;6.600;2023-06-19T08:50:42;21.20;99.90
51837;DHT22;38941;53.254;6.600;2023-06-19T08:52:42;21.20;99.90
51837;DHT22;38941;53.254;6.600;2023-06-19T08:54:44;21.40;99.90
51837;DHT22;38941;53.254;6.600;2023-06-19T08:56:47;21.30;99.90
51837;DHT22;38941;53.254;6.600;2023-06-19T08:58:48;19.50;99.90
51837;DHT22;38941;53.254;6.600;2023-06-19T09:00:49;21.20;99.90
51837;DHT22;38941;53.254;6.600;2023-06-19T09:02:51;20.60;99.90
51837;DHT22;38941;53.254;6.600;2023-06-19T09:04:53;21.30;99.90
51837;DHT22;38941;53.254;6.600;2023-06-19T09:07:00;21.20;99.90
51837;DHT22;38941;53.254;6.600;2023-06-19T09:09:04;21.10;99.90
51837;DHT22;38941;53.254;6.600;2023-06-19T09:11:07;21.00;99.90
51837;DHT22;38941;53.254;6.600;2023-06-19T09:13:10;21.00;99.90
51837;DHT22;38941;53.254;6.600;2023-06-19T09:15:15;21.00;99.90
51837;DHT22;38941;53.254;6.600;2023-06-19T09:17:24;21.00;99.90
51837;DHT22;38941;53.254;6.600;2023-06-19T09:19:26;21.00;99.90
51837;DHT22;38941;53.254;6.600;2023-06-19T09:21:28;21.40;99.90
51837;DHT22;38941;53.254;6.600;2023-06-19T09:23:29;21.20;99.90
51837;DHT22;38941;53.254;6.600;2023-06-19T09:25:30;22.80;99.90
51837;DHT22;38941;53.254;6.600;2023-06-19T09:27:33;21.60;99.90
51837;DHT22;38941;53.254;6.600;2023-06-19T09:29:37;21.70;99.90
51837;DHT22;38941;53.254;6.600;2023-06-19T09:31:42;21.90;99.90
51837;DHT22;38941;53.254;6.600;2023-06-19T09:33:43;21.90;99.90
51837;DHT22;38941;53.254;6.600;2023-06-19T09:35:44;22.00;99.90
51837;DHT22;38941;53.254;6.600;2023-06-19T09:37:45;22.30;99.90
51837;DHT22;38941;53.254;6.600;2023-06-19T09:39:52;22.00;99.90
51837;DHT22;38941;53.254;6.600;2023-06-19T09:41:54;22.10;99.90
51837;DHT22;38941;53.254;6.600;2023-06-19T09:43:59;21.90;99.90
51837;DHT22;38941;53.254;6.600;2023-06-19T09:46:04;22.00;99.90
51837;DHT22;38941;53.254;6.600;2023-06-19T09:48:06;21.80;99.90
51837;DHT22;38941;53.254;6.600;2023-06-19T09:50:15;21.70;99.90
51837;DHT22;38941;53.254;6.600;2023-06-19T09:52:19;22.10;99.90
51837;DHT22;38941;53.254;6.600;2023-06-19T09:54:24;21.50;99.90
51837;DHT22;38941;53.254;6.600;2023-06-19T09:56:27;21.50;99.90
51837;DHT22;38941;53.254;6.600;2023-06-19T09:58:30;21.40;99.90
51837;DHT22;38941;53.254;6.600;2023-06-19T10:00:33;21.40;99.90
51837;DHT22;38941;53.254;6.600;2023-06-19T10:02:36;21.30;99.90
51837;DHT22;38941;53.254;6.600;2023-06-19T10:04:46;21.40;99.90
51837;DHT22;38941;53.254;6.600;2023-06-19T10:06:48;21.50;99.90
51837;DHT22;38941;53.254;6.600;2023-06-19T10:08:51;21.40;99.90
51837;DHT22;38941;53.254;6.600;2023-06-19T10:10:55;21.70;99.90
51837;DHT22;38941;53.254;6.600;2023-06-19T10:13:12;21.90;99.90
51837;DHT22;38941;53.254;6.600;2023-06-19T10:15:23;21.50;99.90
51837;DHT22;38941;53.254;6.600;2023-06-19T10:17:30;21.40;99.90
51837;DHT22;38941;53.254;6.600;2023-06-19T10:19:33;21.50;99.90
51837;DHT22;38941;53.254;6.600;2023-06-19T10:21:44;21.30;99.90
51837;DHT22;38941;53.254;6.600;2023-06-19T10:23:57;21.30;99.90
51837;DHT22;38941;53.254;6.600;2023-06-19T10:25:59;21.20;99.90
51837;DHT22;38941;53.254;6.600;2023-06-19T10:28:01;21.10;99.90
51837;DHT22;38941;53.254;6.600;2023-06-19T10:30:03;21.00;99.90
51837;DHT22;38941;53.254;6.600;2023-06-19T10:32:04;21.00;99.90
51837;DHT22;38941;53.254;6.600;2023-06-19T10:34:05;21.00;99.90
51837;DHT22;38941;53.254;6.600;2023-06-19T10:36:18;21.00;99.90
51837;DHT22;38941;53.254;6.600;2023-06-19T10:38:19;20.90;99.90
51837;DHT22;38941;53.254;6.600;2023-06-19T10:40:20;20.80;99.90
51837;DHT22;38941;53.254;6.600;2023-06-19T10:42:21;20.80;99.90
51837;DHT22;38941;53.254;6.600;2023-06-19T10:44:23;20.90;99.90
51837;DHT22;38941;53.254;6.600;2023-06-19T10:46:31;20.80;99.90
51837;DHT22;38941;53.254;6.600;2023-06-19T10:48:32;21.20;99.90
51837;DHT22;38941;53.254;6.600;2023-06-19T10:50:42;21.00;99.90
51837;DHT22;38941;53.254;6.600;2023-06-19T10:52:46;21.40;99.90
51837;DHT22;38941;53.254;6.600;2023-06-19T10:54:58;21.40;99.90
51837;DHT22;38941;53.254;6.600;2023-06-19T10:57:04;21.50;99.90
51837;DHT22;38941;53.254;6.600;2023-06-19T10:59:09;21.40;99.90
51837;DHT22;38941;53.254;6.600;2023-06-19T11:01:11;21.50;99.90
51837;DHT22;38941;53.254;6.600;2023-06-19T11:03:12;21.20;99.90
51837;DHT22;38941;53.254;6.600;2023-06-19T11:05:14;21.70;99.90
51837;DHT22;38941;53.254;6.600;2023-06-19T11:07:16;21.80;99.90
51837;DHT22;38941;53.254;6.600;2023-06-19T11:09:19;21.90;99.90
51837;DHT22;38941;53.254;6.600;2023-06-19T11:11:21;22.10;99.90
51837;DHT22;38941;53.254;6.600;2023-06-19T11:13:22;22.00;99.90
51837;DHT22;38941;53.254;6.600;2023-06-19T11:15:34;22.00;99.90
51837;DHT22;38941;53.254;6.600;2023-06-19T11:17:35;21.90;99.90
51837;DHT22;38941;53.254;6.600;2023-06-19T11:19:36;22.10;99.90
51837;DHT22;38941;53.254;6.600;2023-06-19T11:21:39;22.10;99.90
51837;DHT22;38941;53.254;6.600;2023-06-19T11:23:47;22.00;99.90
51837;DHT22;38941;53.254;6.600;2023-06-19T11:26:04;22.00;99.90
51837;DHT22;38941;53.254;6.600;2023-06-19T11:28:14;22.00;99.90
51837;DHT22;38941;53.254;6.600;2023-06-19T11:30:15;22.20;99.90
51837;DHT22;38941;53.254;6.600;2023-06-19T11:32:16;22.40;99.90
51837;DHT22;38941;53.254;6.600;2023-06-19T11:34:32;22.70;99.90
51837;DHT22;38941;53.254;6.600;2023-06-19T11:36:38;22.80;99.90
51837;DHT22;38941;53.254;6.600;2023-06-19T11:38:42;23.00;99.90
51837;DHT22;38941;53.254;6.600;2023-06-19T11:40:49;23.10;99.90
51837;DHT22;38941;53.254;6.600;2023-06-19T11:42:54;23.10;99.90
51837;DHT22;38941;53.254;6.600;2023-06-19T11:45:05;23.20;99.90
51837;DHT22;38941;53.254;6.600;2023-06-19T11:47:12;23.30;99.90
51837;DHT22;38941;53.254;6.600;2023-06-19T11:49:17;23.50;99.90
51837;DHT22;38941;53.254;6.600;2023-06-19T11:51:21;23.30;99.90
51837;DHT22;38941;53.254;6.600;2023-06-19T11:53:23;23.30;99.90
51837;DHT22;38941;53.254;6.600;2023-06-19T11:55:24;23.10;99.90
51837;DHT22;38941;53.254;6.600;2023-06-19T11:57:26;23.40;99.90
51837;DHT22;38941;53.254;6.600;2023-06-19T11:59:28;23.60;99.90
51837;DHT22;38941;53.254;6.600;2023-06-19T12:01:33;23.50;99.90
51837;DHT22;38941;53.254;6.600;2023-06-19T12:03:41;23.60;99.90
51837;DHT22;38941;53.254;6.600;2023-06-19T12:05:42;23.80;99.90
51837;DHT22;38941;53.254;6.600;2023-06-19T12:07:43;24.00;99.90
51837;DHT22;38941;53.254;6.600;2023-06-19T12:09:44;23.90;99.90
51837;DHT22;38941;53.254;6.600;2023-06-19T12:11:45;23.90;99.90
51837;DHT22;38941;53.254;6.600;2023-06-19T12:13:46;23.70;99.90
51837;DHT22;38941;53.254;6.600;2023-06-19T12:15:47;23.60;99.90
51837;DHT22;38941;53.254;6.600;2023-06-19T12:17:48;23.70;99.90
51837;DHT22;38941;53.254;6.600;2023-06-19T12:19:49;23.70;99.90
51837;DHT22;38941;53.254;6.600;2023-06-19T12:21:51;23.80;99.90
51837;DHT22;38941;53.254;6.600;2023-06-19T12:23:52;23.80;99.90
51837;DHT22;38941;53.254;6.600;2023-06-19T12:25:53;23.80;99.90
51837;DHT22;38941;53.254;6.600;2023-06-19T12:27:54;23.70;99.90
51837;DHT22;38941;53.254;6.600;2023-06-19T12:29:56;23.80;99.90
51837;DHT22;38941;53.254;6.600;2023-06-19T12:32:01;23.70;99.90
51837;DHT22;38941;53.254;6.600;2023-06-19T12:34:03;23.80;99.90
51837;DHT22;38941;53.254;6.600;2023-06-19T12:36:06;23.80;99.90
51837;DHT22;38941;53.254;6.600;2023-06-19T12:38:14;25.40;99.90
51837;DHT22;38941;53.254;6.600;2023-06-19T12:40:21;23.90;99.90
51837;DHT22;38941;53.254;6.600;2023-06-19T12:42:22;22.80;99.90
51837;DHT22;38941;53.254;6.600;2023-06-19T12:44:23;23.80;99.90
51837;DHT22;38941;53.254;6.600;2023-06-19T12:46:24;24.00;99.90
51837;DHT22;38941;53.254;6.600;2023-06-19T12:48:26;24.10;99.90
51837;DHT22;38941;53.254;6.600;2023-06-19T12:50:28;24.10;99.90
51837;DHT22;38941;53.254;6.600;2023-06-19T12:52:29;24.00;99.90
51837;DHT22;38941;53.254;6.600;2023-06-19T12:54:31;24.30;99.90
51837;DHT22;38941;53.254;6.600;2023-06-19T12:56:35;24.50;99.90